Terminal Aerodrome Forecast
Issued by NWS Twin Cities, MN

Current Version | Previous Version | Text Only | Print | Product List | Glossary On
Versions: 1 2 3 4 5 6 7 8 9 10 11 12
000
FTUS43 KMPX 281720
TAFSTC
TAF
KSTC 281720Z 2818/2918 35010KT P6SM BKN050 BKN070
     FM282000 35009KT P6SM SCT060
     FM290100 36004KT P6SM SKC=

USA.gov is the U.S. government's official web portal to all federal, state and local government web resources and services.